createdAt,value
2023-10-01T00:02:17.351Z,76.50
2023-10-01T00:07:19.064Z,77.10
2023-10-01T00:12:25.050Z,76.67
2023-10-01T00:17:26.750Z,76.14
2023-10-01T00:22:28.795Z,76.98
2023-10-01T00:27:30.472Z,75.86
2023-10-01T00:32:32.229Z,76.19
2023-10-01T00:37:34.715Z,77.05
2023-10-01T00:42:37.614Z,76.09
2023-10-01T00:47:42.770Z,76.61
2023-10-01T00:52:46.048Z,76.32
2023-10-01T00:57:47.955Z,76.41
2023-10-01T01:03:02.372Z,77.18
2023-10-01T01:08:22.241Z,76.63
2023-10-01T01:13:26.991Z,77.35
2023-10-01T01:18:29.203Z,77.02
2023-10-01T01:23:32.858Z,77.12
2023-10-01T01:28:36.995Z,77.36
2023-10-01T01:33:42.205Z,77.30
2023-10-01T01:39:11.186Z,77.10
2023-10-01T01:44:15.819Z,77.29
2023-10-01T01:49:21.375Z,77.44
2023-10-01T01:54:23.146Z,77.45
2023-10-01T01:59:28.669Z,78.20
2023-10-01T02:04:30.688Z,78.40
2023-10-01T02:09:32.479Z,77.60
2023-10-01T02:14:36.568Z,77.65
2023-10-01T02:19:38.374Z,78.05
2023-10-01T02:24:46.502Z,78.10
2023-10-01T02:30:07.065Z,78.14
2023-10-01T02:35:28.849Z,78.29
2023-10-01T02:40:38.030Z,78.09
2023-10-01T02:45:43.137Z,78.24
2023-10-01T02:50:46.853Z,77.96
2023-10-01T02:55:49.091Z,77.82
2023-10-01T03:00:54.381Z,78.32
2023-10-01T03:05:56.801Z,78.98
2023-10-01T03:10:58.459Z,78.92
2023-10-01T03:16:18.526Z,77.96
2023-10-01T03:21:37.867Z,78.34
2023-10-01T03:26:45.278Z,77.69
2023-10-01T03:31:47.693Z,77.87
2023-10-01T03:36:53.499Z,76.92
2023-10-01T03:42:04.957Z,77.11
2023-10-01T03:47:09.958Z,77.54
2023-10-01T03:52:22.199Z,77.29
2023-10-01T03:57:24.153Z,77.18
2023-10-01T04:02:30.086Z,77.41
2023-10-01T04:07:52.047Z,77.29
2023-10-01T04:12:56.260Z,77.17
2023-10-01T04:18:20.487Z,77.37
2023-10-01T04:23:30.496Z,77.39
2023-10-01T04:28:32.597Z,78.04
2023-10-01T04:33:35.640Z,77.56
2023-10-01T04:38:37.554Z,77.74
2023-10-01T04:43:52.918Z,76.80
2023-10-01T04:48:55.484Z,77.08
2023-10-01T04:54:01.413Z,76.96
2023-10-01T04:59:03.753Z,77.02
2023-10-01T05:04:05.791Z,77.18
2023-10-01T05:09:09.202Z,76.94
2023-10-01T05:14:13.227Z,76.79
2023-10-01T05:19:15.125Z,76.84
2023-10-01T05:24:32.510Z,76.68
2023-10-01T05:29:35.258Z,76.84
2023-10-01T05:34:39.284Z,76.66
2023-10-01T05:45:10.599Z,76.95
2023-10-01T05:50:14.095Z,77.18
2023-10-01T05:55:20.999Z,76.17
2023-10-01T06:00:28.848Z,76.69
2023-10-01T06:05:42.706Z,77.11
2023-10-01T06:11:05.600Z,77.08
2023-10-01T06:16:17.610Z,77.20
2023-10-01T06:21:26.420Z,77.13
2023-10-01T06:26:43.648Z,77.91
2023-10-01T06:31:50.856Z,77.31
2023-10-01T06:36:59.621Z,77.44
2023-10-01T06:42:21.497Z,76.81
2023-10-01T06:47:27.824Z,76.62
2023-10-01T06:52:34.053Z,76.10
2023-10-01T06:57:37.247Z,75.17
2023-10-01T07:02:40.781Z,76.20
2023-10-01T07:07:43.956Z,75.47
2023-10-01T07:12:59.244Z,74.77
2023-10-01T07:18:14.760Z,75.12
2023-10-01T07:23:20.052Z,75.28
2023-10-01T07:28:21.845Z,74.37
2023-10-01T07:33:23.821Z,74.44
2023-10-01T07:38:32.758Z,73.62
2023-10-01T07:43:34.643Z,72.79
2023-10-01T07:48:39.620Z,72.90
2023-10-01T07:53:43.591Z,72.73
2023-10-01T07:58:58.754Z,72.52
2023-10-01T08:04:01.319Z,72.60
2023-10-01T08:09:12.810Z,72.10
2023-10-01T08:14:17.276Z,71.75
2023-10-01T08:19:21.966Z,71.29
2023-10-01T08:24:34.839Z,71.98
2023-10-01T08:29:55.324Z,70.87
2023-10-01T08:35:03.094Z,70.03
2023-10-01T08:40:15.258Z,69.71
2023-10-01T08:45:18.623Z,68.81
2023-10-01T08:50:28.418Z,67.50
2023-10-01T08:55:48.334Z,68.08
2023-10-01T09:01:11.451Z,67.74
2023-10-01T09:06:33.423Z,66.77
2023-10-01T09:11:43.233Z,65.52
2023-10-01T09:16:47.490Z,64.00
2023-10-01T09:21:49.323Z,63.74
2023-10-01T09:26:57.470Z,63.53
2023-10-01T09:32:00.031Z,62.13
2023-10-01T09:37:08.098Z,63.72
2023-10-01T09:42:30.756Z,62.24
2023-10-01T09:47:34.812Z,62.86
2023-10-01T09:52:50.237Z,62.83
2023-10-01T09:57:53.917Z,62.86
2023-10-01T10:02:55.688Z,61.03
2023-10-01T10:08:12.926Z,59.48
2023-10-01T10:13:40.518Z,59.60
2023-10-01T10:19:06.759Z,60.11
2023-10-01T10:24:19.784Z,59.85
2023-10-01T10:29:23.807Z,59.68
2023-10-01T10:34:26.704Z,60.08
2023-10-01T10:39:46.851Z,59.02
2023-10-01T10:45:26.645Z,58.99
2023-10-01T10:50:50.479Z,58.75
2023-10-01T10:56:01.213Z,58.11
2023-10-01T11:01:16.971Z,57.07
2023-10-01T11:06:24.164Z,56.82
2023-10-01T11:11:40.899Z,56.58
2023-10-01T11:16:46.771Z,56.25
2023-10-01T11:21:56.662Z,54.60
2023-10-01T11:27:27.254Z,54.88
2023-10-01T11:33:05.297Z,54.00
2023-10-01T11:38:15.777Z,53.64
2023-10-01T11:43:28.419Z,50.26
2023-10-01T11:48:35.193Z,50.23
2023-10-01T11:53:59.293Z,51.60
2023-10-01T11:59:01.128Z,49.76
2023-10-01T12:04:03.183Z,49.24
2023-10-01T12:09:05.367Z,48.82
2023-10-01T12:14:10.362Z,46.46
2023-10-01T12:19:24.358Z,48.34
2023-10-01T12:24:29.927Z,50.55
2023-10-01T12:29:43.857Z,51.15
2023-10-01T12:34:46.915Z,50.69
2023-10-01T12:39:49.094Z,51.32
2023-10-01T12:44:51.009Z,51.64
2023-10-01T12:50:00.255Z,51.80
2023-10-01T12:55:05.127Z,51.00
2023-10-01T13:00:42.794Z,49.83
2023-10-01T13:05:49.433Z,50.19
2023-10-01T13:10:52.562Z,50.14
2023-10-01T13:15:56.092Z,49.73
2023-10-01T13:21:09.213Z,49.70
2023-10-01T13:26:25.540Z,49.22
2023-10-01T13:31:32.299Z,48.92
2023-10-01T13:36:56.429Z,48.18
2023-10-01T13:42:16.502Z,48.12
2023-10-01T13:47:36.935Z,47.26
2023-10-01T13:52:57.175Z,47.52
2023-10-01T13:58:17.526Z,46.57
2023-10-01T14:03:37.790Z,47.60
2023-10-01T14:08:45.354Z,47.41
2023-10-01T14:13:49.457Z,47.89
2023-10-01T14:18:55.585Z,47.99
2023-10-01T14:24:19.229Z,48.62
2023-10-01T14:29:23.918Z,49.31
2023-10-01T14:34:25.746Z,49.20
2023-10-01T14:39:33.490Z,49.51
2023-10-01T14:44:43.876Z,50.05
2023-10-01T14:49:45.828Z,49.85
2023-10-01T14:54:47.915Z,50.47
2023-10-01T14:59:49.569Z,51.25
2023-10-01T15:04:51.232Z,51.17
2023-10-01T15:10:06.225Z,50.41
2023-10-01T15:15:29.478Z,50.53
2023-10-01T15:20:48.741Z,49.78
2023-10-01T15:25:50.564Z,49.04
2023-10-01T15:30:52.302Z,49.73
2023-10-01T15:35:54.475Z,50.04
2023-10-01T15:40:56.625Z,49.53
2023-10-01T15:46:14.067Z,48.84
2023-10-01T15:51:26.982Z,49.40
2023-10-01T15:56:34.482Z,49.84
2023-10-01T16:01:36.246Z,49.54
2023-10-01T16:06:39.395Z,50.35
2023-10-01T16:11:41.052Z,50.22
2023-10-01T16:16:42.935Z,50.16
2023-10-01T16:21:45.480Z,50.54
2023-10-01T16:26:47.855Z,51.40
2023-10-01T16:31:49.825Z,51.55
2023-10-01T16:36:52.585Z,51.63
2023-10-01T16:41:54.243Z,52.38
2023-10-01T16:46:59.713Z,52.71
2023-10-01T16:52:03.523Z,52.79
2023-10-01T16:57:13.128Z,52.51
2023-10-01T17:02:19.787Z,53.09
2023-10-01T17:07:22.729Z,53.39
2023-10-01T17:12:24.940Z,53.52
2023-10-01T17:17:28.839Z,53.56
2023-10-01T17:22:30.731Z,53.63
2023-10-01T17:27:32.562Z,53.88
2023-10-01T17:32:34.285Z,53.54
2023-10-01T17:37:36.025Z,53.33
2023-10-01T17:42:37.709Z,54.20
2023-10-01T17:47:45.430Z,54.76
2023-10-01T17:52:48.007Z,55.23
2023-10-01T17:57:49.769Z,55.46
2023-10-01T18:02:51.595Z,55.90
2023-10-01T18:07:54.985Z,56.57
2023-10-01T18:12:58.285Z,56.10
2023-10-01T18:17:59.995Z,57.24
2023-10-01T18:23:01.840Z,56.63
2023-10-01T18:28:03.666Z,57.38
2023-10-01T18:33:06.028Z,57.51
2023-10-01T18:38:12.761Z,59.16
2023-10-01T18:43:18.749Z,60.46
2023-10-01T18:48:20.455Z,60.74
2023-10-01T18:53:22.516Z,60.76
2023-10-01T18:58:24.375Z,61.37
2023-10-01T19:03:26.450Z,62.42
2023-10-01T19:08:33.267Z,63.30
2023-10-01T19:13:35.342Z,63.34
2023-10-01T19:18:37.127Z,62.95
2023-10-01T19:23:42.010Z,62.58
2023-10-01T19:28:43.881Z,62.42
2023-10-01T19:33:45.841Z,63.47
2023-10-01T19:38:50.299Z,63.52
2023-10-01T19:43:52.072Z,65.77
2023-10-01T19:48:53.964Z,65.51
2023-10-01T19:54:13.733Z,64.77
2023-10-01T19:59:16.378Z,66.57
2023-10-01T20:04:19.418Z,67.03
2023-10-01T20:09:33.878Z,67.42
2023-10-01T20:14:42.010Z,67.62
2023-10-01T20:19:44.473Z,66.75
2023-10-01T20:24:50.966Z,67.02
2023-10-01T20:29:57.263Z,66.84
2023-10-01T20:34:59.585Z,67.02
2023-10-01T20:40:09.695Z,66.91
2023-10-01T20:45:25.302Z,66.93
2023-10-01T20:50:40.010Z,68.45
2023-10-01T20:55:42.002Z,69.35
2023-10-01T21:00:51.781Z,68.97
2023-10-01T21:05:56.610Z,67.19
2023-10-01T21:11:02.941Z,66.44
2023-10-01T21:16:05.289Z,68.49
2023-10-01T21:21:07.853Z,67.22
2023-10-01T21:26:09.550Z,68.45
2023-10-01T21:31:21.252Z,69.07
2023-10-01T21:36:23.548Z,68.90
2023-10-01T21:41:29.680Z,68.26
2023-10-01T21:46:39.619Z,68.99
2023-10-01T21:51:47.117Z,68.96
2023-10-01T21:56:49.414Z,68.09
2023-10-01T22:01:54.457Z,69.05
2023-10-01T22:07:00.746Z,69.68
2023-10-01T22:12:03.586Z,67.94
2023-10-01T22:17:06.219Z,66.78
2023-10-01T22:22:08.100Z,68.46
2023-10-01T22:27:13.279Z,68.21
2023-10-01T22:32:15.757Z,69.07
2023-10-01T22:37:18.341Z,70.10
2023-10-01T22:42:23.262Z,70.61
2023-10-01T22:47:26.978Z,71.43
2023-10-01T22:52:32.523Z,71.51
2023-10-01T22:57:42.813Z,71.19
2023-10-01T23:02:53.331Z,71.64
2023-10-01T23:08:08.591Z,71.92
2023-10-01T23:13:13.646Z,72.13
2023-10-01T23:18:27.289Z,72.63
2023-10-01T23:23:30.970Z,73.04
2023-10-01T23:28:38.269Z,73.88
2023-10-01T23:33:40.325Z,73.79
2023-10-01T23:38:57.481Z,73.58
2023-10-01T23:44:00.552Z,73.91
2023-10-01T23:49:06.094Z,73.57
2023-10-01T23:54:09.726Z,74.07
2023-10-01T23:59:29.861Z,73.87
